Terminal Aerodrome Forecast
Issued by NWS Tuscon, AZ

Home | Current Version | Previous Version | Text Only | Print | Product List | Glossary On
Versions: 1 2 3 4 5 6 7 8 9 10 11 12 13
436
FTUS45 KTWC 271738
TAFTUS
TAF
KTUS 271738Z 2718/2818 14009KT P6SM BKN250
     FM272000 21013KT P6SM SCT080 BKN140 OVC200
     FM272200 24015G23KT P6SM SCT080 OVC140
     FM280200 21013KT P6SM SCT070 OVC120
     FM281000 22012KT P6SM VCSH BKN060 BKN100=

USA.gov is the U.S. government's official web portal to all federal, state and local government web resources and services.